Time;durP1;ratioP1;P1;durP2;ratioP2;P2;SDS_P1;SDS_P2;PMS_P1;PMS_P2;Temp;Humidity;BMP_temperature;BMP_pressure;BME280_temperature;BME280_humidity;BME280_pressure;Samples;Min_cycle;Max_cycle;Signal;HPM_P1;HPM_P2
2022/04/29 00:00:16;;;;;;;3.28;1.08;;;18.10;49.40;;;;;;4495788;31;20140;-62
2022/04/29 00:02:42;;;;;;;2.17;1.40;;;18.10;49.30;;;;;;4497739;31;20136;-61
2022/04/29 00:05:10;;;;;;;2.65;1.00;;;18.10;49.40;;;;;;4497540;31;20146;-61
2022/04/29 00:07:38;;;;;;;3.85;1.30;;;18.10;49.40;;;;;;4497354;31;20109;-61
2022/04/29 00:10:13;;;;;;;2.15;1.00;;;18.10;49.40;;;;;;4498217;31;20167;-62
2022/04/29 00:12:41;;;;;;;2.38;1.17;;;18.10;49.40;;;;;;4497307;31;20151;-61
2022/04/29 00:15:08;;;;;;;2.05;1.10;;;18.10;49.40;;;;;;4497768;31;20171;-61
2022/04/29 00:17:34;;;;;;;1.67;0.85;;;18.10;49.40;;;;;;4497155;31;20136;-62
2022/04/29 00:20:00;;;;;;;2.83;1.13;;;18.10;49.40;;;;;;4497679;31;20411;-62
2022/04/29 00:22:26;;;;;;;1.60;0.73;;;18.10;49.40;;;;;;4497620;31;20295;-61
2022/04/29 00:24:52;;;;;;;2.15;1.08;;;18.10;49.40;;;;;;4497197;31;20129;-61
2022/04/29 00:27:18;;;;;;;1.90;1.10;;;18.10;50.40;;;;;;4498134;31;20128;-62
2022/04/29 00:29:43;;;;;;;2.00;0.90;;;18.10;49.40;;;;;;4497028;31;20147;-61
2022/04/29 00:32:10;;;;;;;1.58;1.10;;;18.10;49.40;;;;;;4497727;31;20140;-62
2022/04/29 00:34:36;;;;;;;1.95;0.88;;;18.10;49.50;;;;;;4497047;31;20125;-62
2022/04/29 00:37:02;;;;;;;1.58;0.95;;;18.10;49.40;;;;;;4497265;31;20646;-61
2022/04/29 00:39:28;;;;;;;1.95;1.20;;;18.10;49.50;;;;;;4496075;31;20139;-61
2022/04/29 00:41:53;;;;;;;2.03;0.82;;;18.10;49.40;;;;;;4497093;31;20117;-62
2022/04/29 00:44:19;;;;;;;3.40;1.10;;;18.10;49.50;;;;;;4497848;31;20117;-61
2022/04/29 00:46:47;;;;;;;1.40;0.70;;;18.00;49.40;;;;;;4496955;31;20186;-62
2022/04/29 00:49:14;;;;;;;2.90;1.35;;;18.00;49.40;;;;;;4497621;31;20140;-61
2022/04/29 00:51:42;;;;;;;2.47;1.10;;;18.00;49.40;;;;;;4496888;31;20133;-61
2022/04/29 00:54:12;;;;;;;2.40;1.15;;;18.00;49.40;;;;;;4497440;31;20125;-61
2022/04/29 00:56:41;;;;;;;1.58;0.93;;;18.00;49.40;;;;;;4497333;31;20129;-62
2022/04/29 00:59:18;;;;;;;2.00;0.85;;;18.00;49.40;;;;;;4496744;31;20467;-61
2022/04/29 01:01:46;;;;;;;1.30;1.00;;;18.00;49.40;;;;;;4497723;31;20132;-62
2022/04/29 01:04:24;;;;;;;2.33;1.38;;;18.00;49.40;;;;;;4496801;31;20190;-61
2022/04/29 01:06:51;;;;;;;2.35;0.95;;;18.00;49.40;;;;;;4497037;31;20141;-61
2022/04/29 01:09:17;;;;;;;1.45;0.80;;;18.00;49.40;;;;;;4497042;32;20132;-62
2022/04/29 01:11:43;;;;;;;2.00;0.90;;;18.00;49.40;;;;;;4499247;31;20564;-61
2022/04/29 01:14:09;;;;;;;1.92;0.80;;;18.00;49.40;;;;;;4500936;31;20258;-61
2022/04/29 01:16:35;;;;;;;2.97;0.85;;;18.00;49.40;;;;;;4499786;31;20726;-62
2022/04/29 01:19:00;;;;;;;2.40;0.93;;;18.00;49.50;;;;;;4500510;31;20187;-61
2022/04/29 01:21:27;;;;;;;3.15;1.15;;;18.00;50.40;;;;;;4499870;31;20144;-62
2022/04/29 01:23:52;;;;;;;1.95;1.10;;;18.00;49.40;;;;;;4500434;31;20178;-61
2022/04/29 01:26:18;;;;;;;2.58;1.02;;;18.00;49.40;;;;;;4499901;31;20251;-62
2022/04/29 01:28:45;;;;;;;1.65;0.80;;;18.00;49.40;;;;;;4500205;31;20121;-61
2022/04/29 01:31:15;;;;;;;1.35;0.98;;;18.00;49.40;;;;;;4500380;31;20352;-62
2022/04/29 01:33:42;;;;;;;1.48;0.85;;;18.00;49.40;;;;;;4499746;31;20144;-61
2022/04/29 01:36:09;;;;;;;1.02;0.77;;;18.00;49.40;;;;;;4500419;31;20117;-62
2022/04/29 01:38:37;;;;;;;1.60;0.77;;;18.00;49.40;;;;;;4499215;31;20668;-62
2022/04/29 01:41:04;;;;;;;2.30;1.02;;;17.90;49.40;;;;;;4500138;31;20486;-61
2022/04/29 01:43:31;;;;;;;1.25;0.80;;;17.90;49.40;;;;;;4499677;31;20148;-62
2022/04/29 01:45:57;;;;;;;2.05;1.13;;;17.90;49.40;;;;;;4499684;31;20194;-61
2022/04/29 01:48:25;;;;;;;1.20;0.80;;;17.90;49.40;;;;;;4500052;31;20246;-62
2022/04/29 01:50:51;;;;;;;1.60;0.70;;;17.90;49.40;;;;;;4499432;31;20305;-61
2022/04/29 01:53:17;;;;;;;2.55;0.80;;;17.90;49.40;;;;;;4500226;31;20480;-62
2022/04/29 01:55:42;;;;;;;1.75;0.73;;;17.90;49.40;;;;;;4499376;31;20124;-61
2022/04/29 01:58:08;;;;;;;1.17;0.70;;;17.90;49.40;;;;;;4499703;31;20136;-61
2022/04/29 02:00:34;;;;;;;1.55;0.80;;;17.90;49.40;;;;;;4499274;31;20128;-62
2022/04/29 02:03:00;;;;;;;0.80;0.80;;;17.90;49.40;;;;;;4499732;31;20171;-61
2022/04/29 02:05:26;;;;;;;1.00;0.75;;;17.90;49.40;;;;;;4499745;31;20278;-61
2022/04/29 02:07:53;;;;;;;1.02;0.73;;;17.90;49.40;;;;;;4498998;31;20136;-62
2022/04/29 02:10:20;;;;;;;1.88;0.70;;;17.90;49.40;;;;;;4499987;31;20131;-61
2022/04/29 02:12:46;;;;;;;1.75;0.90;;;17.90;49.40;;;;;;4498836;31;20129;-61
2022/04/29 02:15:12;;;;;;;1.67;0.75;;;17.90;49.40;;;;;;4499684;31;20222;-62
2022/04/29 02:17:38;;;;;;;1.52;0.80;;;17.90;49.40;;;;;;4499163;31;20262;-61
2022/04/29 02:20:05;;;;;;;1.02;0.80;;;17.90;49.50;;;;;;4499302;31;20128;-61
2022/04/29 02:22:30;;;;;;;1.05;0.60;;;17.80;49.40;;;;;;4498995;31;20534;-61
2022/04/29 02:24:58;;;;;;;0.98;0.70;;;17.80;49.40;;;;;;4498915;31;20121;-61
2022/04/29 02:27:24;;;;;;;0.93;0.70;;;17.80;49.40;;;;;;4499851;31;20170;-62
2022/04/29 02:29:49;;;;;;;1.38;0.80;;;17.80;49.40;;;;;;4498782;31;20117;-61
2022/04/29 02:32:16;;;;;;;0.90;0.70;;;17.80;49.40;;;;;;4499395;31;20143;-62
2022/04/29 02:34:42;;;;;;;1.20;0.80;;;17.80;49.40;;;;;;4498648;31;20213;-62
2022/04/29 02:37:08;;;;;;;1.77;0.75;;;17.80;49.40;;;;;;4499073;31;20129;-61
2022/04/29 02:39:34;;;;;;;1.60;0.90;;;17.80;49.40;;;;;;4498958;31;20183;-61
2022/04/29 02:42:01;;;;;;;1.23;0.80;;;17.80;49.50;;;;;;4497578;31;20135;-61
2022/04/29 02:44:26;;;;;;;1.55;0.80;;;17.80;49.50;;;;;;4499551;31;20129;-61
2022/04/29 02:47:07;;;;;;;1.13;0.80;;;17.80;49.50;;;;;;4498417;31;20140;-61
2022/04/29 02:49:41;;;;;;;0.70;0.60;;;17.80;49.50;;;;;;4499134;31;20151;-61
2022/04/29 02:52:10;;;;;;;1.45;0.68;;;17.80;49.40;;;;;;4498768;31;20609;-61
2022/04/29 02:54:36;;;;;;;1.60;0.70;;;17.80;49.50;;;;;;4498786;31;20124;-61
2022/04/29 02:57:03;;;;;;;1.13;0.70;;;17.80;49.50;;;;;;4499358;31;20120;-61
2022/04/29 02:59:29;;;;;;;1.10;0.63;;;17.80;49.50;;;;;;4498373;31;20238;-61
2022/04/29 03:01:55;;;;;;;1.27;0.70;;;17.80;49.50;;;;;;4499077;31;20128;-62
2022/04/29 03:04:21;;;;;;;0.88;0.50;;;17.80;49.50;;;;;;4497348;31;20147;-61
2022/04/29 03:06:46;;;;;;;1.90;0.60;;;17.80;49.60;;;;;;4498545;31;20307;-61
2022/04/29 03:09:13;;;;;;;1.40;0.60;;;17.70;49.50;;;;;;4497406;31;20259;-61
2022/04/29 03:11:40;;;;;;;1.00;0.60;;;17.80;49.50;;;;;;4498570;31;20185;-61
2022/04/29 03:14:06;;;;;;;1.42;0.60;;;17.70;49.50;;;;;;4498753;31;20213;-61
2022/04/29 03:16:32;;;;;;;1.05;0.60;;;17.70;49.50;;;;;;4498049;31;20132;-61
2022/04/29 03:18:58;;;;;;;1.27;0.60;;;17.70;49.50;;;;;;4498760;31;20124;-62
2022/04/29 03:21:26;;;;;;;1.73;0.80;;;17.80;49.60;;;;;;4498000;31;20112;-62
2022/04/29 03:23:52;;;;;;;1.95;0.75;;;17.80;49.60;;;;;;4498542;31;20282;-61
2022/04/29 03:26:18;;;;;;;1.10;0.60;;;17.70;49.50;;;;;;4498217;31;20250;-62
2022/04/29 03:28:44;;;;;;;1.00;0.38;;;17.70;49.50;;;;;;4497183;31;20544;-61
2022/04/29 03:31:09;;;;;;;1.55;0.50;;;17.70;49.50;;;;;;4498571;31;20180;-62
2022/04/29 03:33:35;;;;;;;1.05;0.70;;;17.70;49.50;;;;;;4497855;31;20116;-61
2022/04/29 03:36:01;;;;;;;1.13;0.70;;;17.70;49.60;;;;;;4498782;31;20121;-62
2022/04/29 03:38:27;;;;;;;1.33;0.70;;;17.70;49.50;;;;;;4496930;31;20176;-61
2022/04/29 03:40:54;;;;;;;1.30;0.70;;;17.70;49.50;;;;;;4497965;31;20348;-62
2022/04/29 03:43:20;;;;;;;1.10;0.65;;;17.70;49.60;;;;;;4497379;31;20137;-61
2022/04/29 03:45:47;;;;;;;1.02;0.50;;;17.70;49.60;;;;;;4499770;31;20217;-61
2022/04/29 03:48:13;;;;;;;1.17;0.70;;;17.70;50.50;;;;;;4497700;31;20133;-61
2022/04/29 03:50:40;;;;;;;1.17;0.82;;;17.70;49.60;;;;;;4495959;31;20632;-61
2022/04/29 03:53:06;;;;;;;1.02;0.50;;;17.70;49.60;;;;;;4498182;31;20286;-61
2022/04/29 03:55:34;;;;;;;0.90;0.60;;;17.60;49.60;;;;;;4499167;31;20136;-61
2022/04/29 03:58:04;;;;;;;1.45;0.70;;;17.70;49.60;;;;;;4497604;31;20137;-61
2022/04/29 04:00:32;;;;;;;1.13;0.65;;;17.60;49.50;;;;;;4499357;31;20266;-61
2022/04/29 04:03:05;;;;;;;1.35;0.47;;;17.70;49.60;;;;;;4497391;31;20125;-61
2022/04/29 04:05:32;;;;;;;0.98;0.55;;;17.70;49.60;;;;;;4505760;31;20143;-61
2022/04/29 04:07:57;;;;;;;0.73;0.68;;;17.60;49.60;;;;;;4511336;31;20282;-62
2022/04/29 04:10:25;;;;;;;0.80;0.50;;;17.60;49.60;;;;;;4512856;31;20197;-62
2022/04/29 04:12:52;;;;;;;1.45;0.55;;;17.60;49.60;;;;;;4511710;31;20194;-62
2022/04/29 04:15:20;;;;;;;0.40;0.40;;;17.60;49.60;;;;;;4512961;31;20284;-62
2022/04/29 04:17:47;;;;;;;1.45;0.68;;;17.60;49.60;;;;;;4512000;31;20582;-62
2022/04/29 04:20:14;;;;;;;0.60;0.40;;;17.60;49.60;;;;;;4509111;31;20140;-63
2022/04/29 04:22:40;;;;;;;0.68;0.40;;;17.60;49.60;;;;;;4509220;31;20135;-62
2022/04/29 04:25:09;;;;;;;0.65;0.57;;;17.60;49.60;;;;;;4505752;31;20168;-63
2022/04/29 04:27:35;;;;;;;1.10;0.63;;;17.60;49.60;;;;;;4497387;31;20129;-62
2022/04/29 04:30:01;;;;;;;1.45;0.60;;;17.60;50.60;;;;;;4482393;31;20127;-62
2022/04/29 04:32:28;;;;;;;1.15;0.55;;;17.60;49.60;;;;;;4496973;31;20313;-62
2022/04/29 04:35:00;;;;;;;0.95;0.50;;;17.60;49.60;;;;;;4496320;31;20128;-62
2022/04/29 04:37:28;;;;;;;1.15;0.50;;;17.60;49.60;;;;;;4495990;31;20137;-62
2022/04/29 04:39:54;;;;;;;1.17;0.57;;;17.60;49.60;;;;;;4496450;31;20156;-62
2022/04/29 04:42:23;;;;;;;0.88;0.70;;;17.60;49.70;;;;;;4495828;31;20136;-62
2022/04/29 04:44:51;;;;;;;0.82;0.60;;;17.60;49.70;;;;;;4498395;31;20133;-62
2022/04/29 04:47:19;;;;;;;0.60;0.40;;;17.60;49.70;;;;;;4495827;31;20136;-62
2022/04/29 04:49:44;;;;;;;0.63;0.47;;;17.60;49.70;;;;;;4496284;31;20147;-62
2022/04/29 04:52:11;;;;;;;0.95;0.73;;;17.50;49.70;;;;;;4496123;31;20128;-61
2022/04/29 04:54:37;;;;;;;0.85;0.60;;;17.50;49.70;;;;;;4496085;31;20136;-62
2022/04/29 04:57:04;;;;;;;1.23;0.50;;;17.60;49.70;;;;;;4496634;31;20167;-62
2022/04/29 04:59:31;;;;;;;1.13;0.65;;;17.60;49.70;;;;;;4497665;31;20144;-62
2022/04/29 05:01:57;;;;;;;1.33;0.75;;;17.50;49.70;;;;;;4496641;31;20199;-62
2022/04/29 05:04:23;;;;;;;0.35;0.35;;;17.50;49.70;;;;;;4496873;31;20675;-62
2022/04/29 05:06:49;;;;;;;0.70;0.47;;;17.50;49.70;;;;;;4497186;31;20563;-61
2022/04/29 05:09:15;;;;;;;1.20;0.57;;;17.50;49.70;;;;;;4497018;31;20668;-62
2022/04/29 05:11:41;;;;;;;0.90;0.50;;;17.50;49.70;;;;;;4496965;31;20154;-61
2022/04/29 05:14:07;;;;;;;1.35;0.40;;;17.50;49.70;;;;;;4497543;31;20117;-62
2022/04/29 05:16:33;;;;;;;0.90;0.60;;;17.50;49.70;;;;;;4496664;32;20124;-61
2022/04/29 05:18:59;;;;;;;0.98;0.60;;;17.50;49.70;;;;;;4497313;32;20234;-62
2022/04/29 05:21:25;;;;;;;0.88;0.50;;;17.50;49.70;;;;;;4496730;32;20133;-62
2022/04/29 05:23:51;;;;;;;0.93;0.60;;;17.50;49.70;;;;;;4497220;32;20129;-61
2022/04/29 05:26:16;;;;;;;1.30;0.68;;;17.50;49.70;;;;;;4496903;31;20137;-62
2022/04/29 05:28:42;;;;;;;1.63;0.73;;;17.50;49.80;;;;;;4496836;32;20122;-61
2022/04/29 05:31:09;;;;;;;0.93;0.55;;;17.50;49.70;;;;;;4497313;31;20146;-62
2022/04/29 05:33:37;;;;;;;0.45;0.45;;;17.50;49.80;;;;;;4496504;31;20132;-62
2022/04/29 05:36:04;;;;;;;0.93;0.55;;;17.50;49.80;;;;;;4497420;32;20129;-62
2022/04/29 05:44:00;;;;;;;0.70;0.50;;;17.50;49.80;;;;;;4497245;32;20121;-62
2022/04/29 05:46:26;;;;;;;0.77;0.47;;;17.50;49.80;;;;;;4496521;31;20195;-61
2022/04/29 05:48:52;;;;;;;0.95;0.50;;;17.50;49.80;;;;;;4497166;31;20144;-61
2022/04/29 05:51:18;;;;;;;0.40;0.40;;;17.50;49.80;;;;;;4496518;31;20270;-62
2022/04/29 05:53:44;;;;;;;0.60;0.50;;;17.50;49.80;;;;;;4496994;31;20121;-62
2022/04/29 05:56:10;;;;;;;1.45;0.50;;;17.50;49.80;;;;;;4496615;31;20160;-62
2022/04/29 05:58:36;;;;;;;0.90;0.60;;;17.50;49.90;;;;;;4498756;31;20137;-61
2022/04/29 06:01:02;;;;;;;1.00;0.60;;;17.50;49.80;;;;;;4499900;31;20132;-62
2022/04/29 06:03:28;;;;;;;0.80;0.40;;;17.40;49.80;;;;;;4499116;31;20271;-62
2022/04/29 06:05:54;;;;;;;0.60;0.40;;;17.50;49.80;;;;;;4500122;31;20179;-62
2022/04/29 06:08:20;;;;;;;0.38;0.30;;;17.50;49.80;;;;;;4498877;31;20596;-61
2022/04/29 06:10:45;;;;;;;1.17;0.52;;;17.40;49.80;;;;;;4499603;31;20137;-61
2022/04/29 06:13:12;;;;;;;0.47;0.38;;;17.40;49.80;;;;;;4499241;31;20151;-62
2022/04/29 06:15:38;;;;;;;0.68;0.40;;;17.40;49.90;;;;;;4499463;31;20140;-62
2022/04/29 06:18:04;;;;;;;0.90;0.40;;;17.50;49.90;;;;;;4499652;31;20137;-61
2022/04/29 06:20:30;;;;;;;0.60;0.45;;;17.40;49.80;;;;;;4499034;31;20129;-62
2022/04/29 06:22:56;;;;;;;0.80;0.40;;;17.40;49.80;;;;;;4499825;31;20176;-62
2022/04/29 06:25:22;;;;;;;0.65;0.50;;;17.40;49.90;;;;;;4499038;31;20141;-62
2022/04/29 06:27:48;;;;;;;0.77;0.50;;;17.40;49.80;;;;;;4499685;31;20548;-62
2022/04/29 06:30:14;;;;;;;1.67;0.50;;;17.40;49.90;;;;;;4499002;31;20639;-62
2022/04/29 06:32:40;;;;;;;0.85;0.50;;;17.40;49.90;;;;;;4499080;31;20770;-61
2022/04/29 06:35:07;;;;;;;1.38;0.50;;;17.40;49.90;;;;;;4499428;31;20124;-60
2022/04/29 06:37:34;;;;;;;1.80;0.60;;;17.40;49.90;;;;;;4498718;31;20163;-61
2022/04/29 06:40:00;;;;;;;1.38;0.40;;;17.40;49.80;;;;;;4499473;31;20148;-60
2022/04/29 06:42:25;;;;;;;3.03;0.70;;;17.40;49.70;;;;;;4498403;31;20213;-60
2022/04/29 06:44:51;;;;;;;2.15;0.82;;;17.40;49.40;;;;;;4499137;31;20141;-61
2022/04/29 06:47:17;;;;;;;1.80;0.70;;;17.30;49.20;;;;;;4498635;31;20462;-61
2022/04/29 06:49:43;;;;;;;2.72;0.70;;;17.40;49.50;;;;;;4499159;31;20162;-61
2022/04/29 06:52:09;;;;;;;4.43;0.70;;;17.40;49.70;;;;;;4498861;31;20132;-61
2022/04/29 06:54:35;;;;;;;2.15;0.57;;;17.40;49.90;;;;;;4498771;31;20187;-62
2022/04/29 06:57:01;;;;;;;1.63;0.55;;;17.40;50.10;;;;;;4499376;31;20144;-62
2022/04/29 06:59:27;;;;;;;1.52;0.77;;;17.40;50.20;;;;;;4498406;31;20168;-62
2022/04/29 07:01:53;;;;;;;3.28;0.80;;;17.40;50.40;;;;;;4499283;31;20133;-61
2022/04/29 07:04:20;;;;;;;1.65;0.60;;;17.30;50.60;;;;;;4498357;31;20147;-62
2022/04/29 07:06:46;;;;;;;3.42;0.70;;;17.40;50.80;;;;;;4498387;31;20140;-63
2022/04/29 07:09:12;;;;;;;1.92;0.70;;;17.40;51.20;;;;;;4497863;31;20152;-61
2022/04/29 07:11:37;;;;;;;3.97;0.80;;;17.40;51.70;;;;;;4498561;31;20160;-62
2022/04/29 07:14:06;;;;;;;4.93;0.90;;;17.40;51.80;;;;;;4499033;31;20132;-62
2022/04/29 07:16:32;;;;;;;4.20;0.85;;;17.50;52.10;;;;;;4498052;31;20117;-62
2022/04/29 07:18:57;;;;;;;5.72;0.90;;;17.50;52.10;;;;;;4498706;31;20135;-62
2022/04/29 07:21:23;;;;;;;5.55;1.08;;;17.60;52.10;;;;;;4498205;31;20132;-61
2022/04/29 07:23:49;;;;;;;6.78;1.08;;;17.80;52.10;;;;;;4498498;31;20167;-62
2022/04/29 07:26:15;;;;;;;1.65;0.70;;;17.90;51.90;;;;;;4498248;31;20140;-63
2022/04/29 07:28:41;;;;;;;3.53;1.00;;;18.00;51.80;;;;;;4498253;31;20188;-63
2022/04/29 07:31:07;;;;;;;4.88;0.90;;;18.10;51.60;;;;;;4498405;31;20271;-65
2022/04/29 07:33:33;;;;;;;3.97;0.80;;;18.20;51.40;;;;;;4497789;31;20509;-63
2022/04/29 07:41:46;;;;;;;1.65;0.68;;;18.60;50.80;;;;;;4498186;31;20593;-64
2022/04/29 07:44:13;;;;;;;5.55;1.00;;;18.70;50.70;;;;;;4498680;31;20125;-62
2022/04/29 07:46:43;;;;;;;1.13;0.55;;;18.70;50.70;;;;;;4497463;31;20136;-62
2022/04/29 07:49:10;;;;;;;3.08;0.80;;;18.70;50.80;;;;;;4498555;31;20124;-62
2022/04/29 07:51:36;;;;;;;2.38;0.70;;;18.70;50.90;;;;;;4497808;31;20128;-62
2022/04/29 07:54:04;;;;;;;2.05;1.00;;;18.70;51.10;;;;;;4498090;31;20124;-62
2022/04/29 07:56:30;;;;;;;3.63;0.90;;;18.70;51.20;;;;;;4497934;31;20144;-62
2022/04/29 07:58:57;;;;;;;1.77;0.70;;;18.60;51.20;;;;;;4508678;31;20186;-64
2022/04/29 08:01:26;;;;;;;1.92;0.82;;;18.60;51.50;;;;;;4513084;31;20132;-64
2022/04/29 08:03:53;;;;;;;2.22;0.70;;;18.60;51.70;;;;;;4505544;31;20120;-64
2022/04/29 08:06:20;;;;;;;2.65;0.88;;;18.60;51.90;;;;;;4512907;31;20159;-64
2022/04/29 08:08:46;;;;;;;4.43;0.82;;;18.60;52.10;;;;;;4511479;31;20193;-63
2022/04/29 08:11:12;;;;;;;2.72;0.80;;;18.70;52.20;;;;;;4511862;31;20143;-61
2022/04/29 08:13:38;;;;;;;2.30;0.70;;;18.70;52.20;;;;;;4513058;31;20132;-63
2022/04/29 08:16:05;;;;;;;4.97;0.90;;;18.70;52.20;;;;;;4512556;31;20139;-64
2022/04/29 08:18:31;;;;;;;3.15;0.70;;;18.90;52.20;;;;;;4513427;31;20120;-63
2022/04/29 08:20:57;;;;;;;4.85;1.00;;;19.00;52.00;;;;;;4511819;31;20187;-63
2022/04/29 08:23:23;;;;;;;4.18;0.85;;;19.10;51.90;;;;;;4512964;31;20160;-63
2022/04/29 08:25:49;;;;;;;4.22;0.50;;;19.20;51.70;;;;;;4510426;31;20589;-63
2022/04/29 08:28:15;;;;;;;1.58;0.68;;;19.40;51.50;;;;;;4507277;31;20197;-62
2022/04/29 08:30:41;;;;;;;3.67;0.80;;;19.50;51.20;;;;;;4497318;31;20132;-64
2022/04/29 08:33:14;;;;;;;1.42;0.70;;;19.60;51.00;;;;;;4496852;31;20152;-63
2022/04/29 08:35:40;;;;;;;2.35;0.80;;;19.70;50.80;;;;;;4497557;31;20237;-63
2022/04/29 08:38:10;;;;;;;3.83;0.80;;;19.70;50.50;;;;;;4511456;31;20166;-62
2022/04/29 08:40:46;;;;;;;2.05;0.77;;;19.80;50.40;;;;;;4512882;31;20189;-62
2022/04/29 08:43:14;;;;;;;2.38;0.80;;;19.90;50.30;;;;;;4512887;31;20175;-62
2022/04/29 08:45:41;;;;;;;6.35;0.80;;;20.00;50.10;;;;;;4510610;31;20151;-64
2022/04/29 08:48:08;;;;;;;3.10;0.70;;;20.10;50.00;;;;;;4497608;31;20132;-65
2022/04/29 08:50:34;;;;;;;3.00;0.85;;;20.20;49.80;;;;;;4496971;31;20598;-63
2022/04/29 08:53:00;;;;;;;2.95;0.80;;;20.30;49.60;;;;;;4496288;31;20152;-63
2022/04/29 09:01:10;;;;;;;3.10;0.75;;;20.60;48.90;;;;;;4511075;31;20865;-62
2022/04/29 09:03:38;;;;;;;2.35;0.60;;;20.60;48.60;;;;;;4511971;31;20154;-62
2022/04/29 09:06:06;;;;;;;4.00;0.70;;;20.80;48.40;;;;;;4512905;31;20136;-62
2022/04/29 09:08:43;;;;;;;2.42;0.77;;;20.80;48.20;;;;;;4511804;31;20257;-62
2022/04/29 09:11:10;;;;;;;1.85;0.75;;;20.90;48.00;;;;;;4512416;31;20139;-62
2022/04/29 09:13:38;;;;;;;3.53;0.88;;;21.00;47.80;;;;;;4498353;31;20136;-62
2022/04/29 09:16:14;;;;;;;1.80;0.75;;;21.10;47.70;;;;;;4500607;31;20245;-63
2022/04/29 09:18:45;;;;;;;4.85;0.88;;;21.20;47.50;;;;;;4512738;31;20577;-62
2022/04/29 09:21:20;;;;;;;3.92;0.75;;;21.30;47.40;;;;;;4509863;31;20255;-63
2022/04/29 09:23:56;;;;;;;1.52;0.65;;;21.30;47.20;;;;;;4512428;31;20176;-63
2022/04/29 09:26:29;;;;;;;1.48;0.43;;;21.40;47.10;;;;;;4512286;31;20148;-62
2022/04/29 09:29:21;;;;;;;1.90;0.93;;;21.50;47.00;;;;;;4511943;31;20245;-63
2022/04/29 09:31:54;;;;;;;2.38;0.85;;;21.50;46.80;;;;;;4513571;31;20215;-63
2022/04/29 09:34:42;;;;;;;5.72;0.95;;;21.60;46.60;;;;;;4515041;31;20180;-63
2022/04/29 09:37:28;;;;;;;1.70;0.60;;;21.70;46.60;;;;;;4514764;31;20142;-62
2022/04/29 09:39:54;;;;;;;0.95;0.60;;;21.70;46.40;;;;;;4512697;31;20671;-62
2022/04/29 09:42:20;;;;;;;1.30;0.68;;;21.80;46.30;;;;;;4514743;31;20300;-62
2022/04/29 09:44:47;;;;;;;3.38;0.70;;;21.90;46.20;;;;;;4515265;31;20148;-62
2022/04/29 09:47:16;;;;;;;4.38;0.80;;;21.90;46.20;;;;;;4514867;31;20143;-62
2022/04/29 09:49:56;;;;;;;2.90;0.80;;;22.00;46.10;;;;;;4502575;31;20282;-62
2022/04/29 09:52:23;;;;;;;2.90;0.70;;;22.00;46.00;;;;;;4512722;31;20194;-62
2022/04/29 09:54:49;;;;;;;4.13;0.80;;;22.10;45.90;;;;;;4498940;31;20159;-62
2022/04/29 09:57:26;;;;;;;1.88;0.80;;;22.10;45.80;;;;;;4504874;31;20176;-63
2022/04/29 09:59:54;;;;;;;3.60;0.70;;;22.10;45.70;;;;;;4514910;31;20120;-62
2022/04/29 10:02:26;;;;;;;2.15;0.80;;;22.20;45.60;;;;;;4515560;31;20204;-61
2022/04/29 10:04:54;;;;;;;1.83;0.75;;;22.20;45.40;;;;;;4515553;31;20172;-62
2022/04/29 10:07:22;;;;;;;2.95;0.50;;;22.20;45.50;;;;;;4509239;31;20181;-63
2022/04/29 10:09:54;;;;;;;1.52;0.63;;;22.10;45.60;;;;;;4499676;31;20136;-64
2022/04/29 10:12:22;;;;;;;1.83;0.75;;;22.10;45.80;;;;;;4498478;31;20274;-62
2022/04/29 10:14:51;;;;;;;3.53;0.47;;;22.00;46.10;;;;;;4499085;31;20194;-63
2022/04/29 10:22:56;;;;;;;0.90;0.60;;;21.60;46.80;;;;;;4501602;31;20128;-62
2022/04/29 10:25:26;;;;;;;4.47;0.75;;;21.50;47.20;;;;;;4498116;31;20140;-63
2022/04/29 10:27:52;;;;;;;2.60;0.70;;;21.40;47.40;;;;;;4498715;31;20156;-61
2022/04/29 10:30:31;;;;;;;1.42;0.70;;;21.30;47.70;;;;;;4497738;31;20136;-62
2022/04/29 10:33:05;;;;;;;1.38;0.43;;;21.20;48.10;;;;;;4493961;31;20683;-63
2022/04/29 10:35:43;;;;;;;3.20;0.80;;;21.10;48.40;;;;;;4514094;31;20116;-62
2022/04/29 10:38:12;;;;;;;4.28;0.70;;;20.90;48.30;;;;;;4511173;31;20124;-62
2022/04/29 10:40:38;;;;;;;3.25;1.00;;;20.80;48.00;;;;;;4513399;31;20132;-63
2022/04/29 10:43:09;;;;;;;5.20;0.90;;;20.70;48.00;;;;;;4505296;31;20191;-63
2022/04/29 10:45:55;;;;;;;2.75;0.93;;;20.60;48.00;;;;;;4498552;31;20264;-63
2022/04/29 10:48:38;;;;;;;1.80;0.70;;;20.50;48.20;;;;;;4498936;31;20349;-63
2022/04/29 10:51:26;;;;;;;1.70;0.95;;;20.40;48.40;;;;;;4498502;31;20144;-63
2022/04/29 10:53:55;;;;;;;4.10;1.05;;;20.30;48.60;;;;;;4489649;31;20663;-63
2022/04/29 10:56:33;;;;;;;4.72;1.23;;;20.30;48.90;;;;;;4498474;31;20131;-63
2022/04/29 10:59:15;;;;;;;3.03;0.90;;;20.20;49.00;;;;;;4511855;31;20140;-63
2022/04/29 11:01:48;;;;;;;2.10;0.90;;;20.10;49.20;;;;;;4514977;31;20139;-64
2022/04/29 11:04:17;;;;;;;2.45;1.00;;;20.10;49.40;;;;;;4512787;31;20150;-63
2022/04/29 11:06:45;;;;;;;4.28;1.15;;;20.00;49.50;;;;;;4514296;31;20112;-63
2022/04/29 11:09:31;;;;;;;3.83;0.90;;;20.00;49.50;;;;;;4514302;31;20132;-63
2022/04/29 11:11:58;;;;;;;1.98;0.80;;;20.00;49.60;;;;;;4513926;31;20546;-63
2022/04/29 11:14:24;;;;;;;3.47;0.80;;;19.90;49.70;;;;;;4514216;31;20217;-64
2022/04/29 11:17:14;;;;;;;3.05;1.08;;;19.90;49.80;;;;;;4513719;31;20120;-63
2022/04/29 11:19:45;;;;;;;2.38;0.75;;;19.90;49.90;;;;;;4507929;31;20707;-64
2022/04/29 11:25:03;;;;;;;2.53;0.90;;;19.80;49.90;;;;;;4504327;31;20682;-64
2022/04/29 11:27:37;;;;;;;2.65;0.90;;;19.80;50.00;;;;;;4506544;31;20125;-64
2022/04/29 11:30:03;;;;;;;4.78;1.00;;;19.70;49.90;;;;;;4500749;31;20140;-63
2022/04/29 11:32:31;;;;;;;2.95;0.73;;;19.70;51.00;;;;;;4497757;31;20144;-63
2022/04/29 11:35:00;;;;;;;2.58;0.88;;;19.70;50.00;;;;;;4501746;31;20140;-63
2022/04/29 11:37:29;;;;;;;2.85;1.00;;;19.60;50.10;;;;;;4508401;31;20221;-64
2022/04/29 11:39:55;;;;;;;2.60;0.70;;;19.70;50.20;;;;;;4513548;31;20480;-63
2022/04/29 11:42:22;;;;;;;6.18;1.10;;;19.60;50.20;;;;;;4512227;31;20135;-64
2022/04/29 11:44:51;;;;;;;3.38;1.08;;;19.60;50.30;;;;;;4497477;31;20615;-63
2022/04/29 11:47:23;;;;;;;3.15;0.88;;;19.60;50.40;;;;;;4496910;31;20144;-64
2022/04/29 11:49:49;;;;;;;2.55;1.00;;;19.60;50.40;;;;;;4511572;31;20148;-63
2022/04/29 11:52:18;;;;;;;1.73;0.80;;;19.60;50.50;;;;;;4513069;31;20112;-63
2022/04/29 11:54:52;;;;;;;3.22;0.95;;;19.50;50.50;;;;;;4502541;31;20137;-63
2022/04/29 11:57:18;;;;;;;4.90;1.25;;;19.50;50.50;;;;;;4497332;31;20152;-63
2022/04/29 11:59:45;;;;;;;2.05;0.90;;;19.50;50.60;;;;;;4510465;31;20143;-62
2022/04/29 12:02:14;;;;;;;2.35;0.90;;;19.50;50.70;;;;;;4513187;31;20139;-63
2022/04/29 12:05:01;;;;;;;2.75;0.90;;;19.50;50.80;;;;;;4511312;31;20172;-63
2022/04/29 12:07:29;;;;;;;2.88;0.90;;;19.50;50.80;;;;;;4511658;31;20132;-62
2022/04/29 12:09:55;;;;;;;1.80;1.05;;;19.40;50.90;;;;;;4510877;31;20144;-62
2022/04/29 12:12:28;;;;;;;6.97;0.90;;;19.40;50.90;;;;;;4502827;31;20193;-62
2022/04/29 12:14:55;;;;;;;2.00;1.00;;;19.40;51.00;;;;;;4503924;31;20132;-63
2022/04/29 12:17:35;;;;;;;2.15;1.00;;;19.40;51.00;;;;;;4502377;31;20269;-63
2022/04/29 12:20:04;;;;;;;1.42;0.75;;;19.40;51.00;;;;;;4502797;31;20167;-64
2022/04/29 12:22:31;;;;;;;3.60;1.00;;;19.40;51.10;;;;;;4503110;31;20132;-64
2022/04/29 12:25:17;;;;;;;4.10;1.00;;;19.40;51.10;;;;;;4502146;31;20128;-64
2022/04/29 12:27:43;;;;;;;1.65;0.60;;;19.40;51.20;;;;;;4497368;31;20164;-63
2022/04/29 12:36:08;;;;;;;1.70;1.15;;;19.30;51.50;;;;;;4499656;31;20126;-63
2022/04/29 12:38:38;;;;;;;2.95;0.85;;;19.30;51.70;;;;;;4500834;31;20136;-63
2022/04/29 12:41:30;;;;;;;1.08;0.75;;;19.40;51.80;;;;;;4508373;31;20140;-63
2022/04/29 12:44:09;;;;;;;1.70;0.68;;;19.40;52.00;;;;;;4507546;31;20178;-63
2022/04/29 12:46:35;;;;;;;1.05;0.80;;;19.50;51.90;;;;;;4501488;31;20135;-63
2022/04/29 12:49:01;;;;;;;3.28;0.80;;;19.60;51.60;;;;;;4509720;31;20144;-63
2022/04/29 12:51:31;;;;;;;3.30;0.88;;;19.70;51.50;;;;;;4510224;31;20187;-63
2022/04/29 12:54:02;;;;;;;1.98;0.73;;;19.90;51.30;;;;;;4503372;31;20154;-63
2022/04/29 12:56:32;;;;;;;1.67;0.70;;;20.00;51.00;;;;;;4497407;31;20266;-63
2022/04/29 12:59:00;;;;;;;3.65;0.95;;;20.20;50.80;;;;;;4498529;31;20150;-63
2022/04/29 13:01:34;;;;;;;3.33;0.70;;;20.30;50.50;;;;;;4496024;31;20246;-63
2022/04/29 13:04:00;;;;;;;1.65;0.70;;;20.40;50.10;;;;;;4500622;31;20165;-63
2022/04/29 13:06:26;;;;;;;4.10;0.63;;;20.60;49.80;;;;;;4502651;31;20109;-63
2022/04/29 13:08:56;;;;;;;2.83;0.93;;;20.70;49.60;;;;;;4508762;31;20186;-63
2022/04/29 13:11:23;;;;;;;1.67;0.60;;;20.80;49.40;;;;;;4501581;31;20152;-62
2022/04/29 13:13:51;;;;;;;1.77;0.73;;;20.90;49.00;;;;;;4503596;31;20124;-63
2022/04/29 13:16:18;;;;;;;3.83;0.60;;;21.10;48.90;;;;;;4515153;31;20148;-62
2022/04/29 13:18:44;;;;;;;1.52;0.70;;;21.20;48.60;;;;;;4515914;31;20197;-63
2022/04/29 13:21:12;;;;;;;2.13;0.90;;;21.30;48.50;;;;;;4515030;31;20152;-62
2022/04/29 13:23:39;;;;;;;1.30;0.68;;;21.30;48.30;;;;;;4515731;31;20132;-63